OMSJ/SHJ METAR and TAF weather

Enter ICAO airport designator
Station Type Date Time Source
OMSJ METAR 2024/07/13 04:00 UTC NOAA

OMSJ 130400Z VRB02KT 9000 NSC 34/28 Q0996 NOSIG


Station Type Date Time Source
OMSJ Decoded METAR 2024/07/13 04:00 UTC NOAA

Sharjah International Airport, United Arab Emirates (OMSJ) 25-20N 055-31E 33M
Jul 13, 2024 - 12:00 AM EDT / 2024.07.13 0400 UTC
Wind: Variable at 2 MPH (2 KT):0
Visibility: 5 mile(s):0
Temperature: 93 F (34 C)
Heat index: 116.4 F (46.9 C):1
Dew Point: 82 F (28 C)
Relative Humidity: 71%
Pressure (altimeter): 29.41 in. Hg (0996 hPa)
ob: OMSJ 130400Z VRB02KT 9000 NSC 34/28 Q0996 NOSIG
cycle: 4

Station Type Date Time Source
OMSJ TAF 2024/07/12 18:05 UTC NOAA